Alfonso, Virginia
Current Conditions -  °F | °C
As of 10:35 AM on Thursday 23 Oct 2014 (Local Time) from KW75 Reporting Station
Overcast Overcast  
Wind Chill: 13°   Ceiling: 5000
Heat Index: 13°   Visibility: 10mi
Dew Point:   Wind: 13mph
Humidity: 67%   Direction: 310°NW
Pressure: 29.88"   Gusts: 24mph
Location:  37.7649°N, 76.5055°W
Report Text: KW75 231435Z AUTO 31011G21KT 10SM SCT029 OVC050 13/07 A2988 RMK AO1 T01340073
Loading
Personal Weather Stations






























Interactive Weather Map
Tropical Storm Tracking
New forecast layout! Learn more

10-Day Weather Forecast

Advertisements
Track Severe Weather on mobile